Time;durP1;ratioP1;P1;durP2;ratioP2;P2;SDS_P1;SDS_P2;PMS_P1;PMS_P2;Temp;Humidity;BMP_temperature;BMP_pressure;BME280_temperature;BME280_humidity;BME280_pressure;Samples;Min_cycle;Max_cycle;Signal;HPM_P1;HPM_P2
2023/01/01 00:01:30;;;;;;;11.30;7.93;;;17.60;99.90;;;;;;5052068;28;20586;-77
2023/01/01 00:03:57;;;;;;;10.50;8.10;;;17.60;99.90;;;;;;5051502;28;20586;-77
2023/01/01 00:06:23;;;;;;;9.93;7.37;;;17.60;99.90;;;;;;5052288;28;20578;-77
2023/01/01 00:10:26;;;;;;;9.67;6.90;;;17.60;99.90;;;;;;5036306;28;20646;-77
2023/01/01 00:11:38;;;;;;;8.80;6.00;;;17.60;99.90;;;;;;5033908;28;20738;-77
2023/01/01 00:14:04;;;;;;;6.47;5.57;;;17.60;99.90;;;;;;5050252;28;20729;-76
2023/01/01 00:16:30;;;;;;;10.83;6.57;;;17.50;99.90;;;;;;5052310;28;20191;-77
2023/01/01 00:18:55;;;;;;;10.57;5.37;;;17.50;99.90;;;;;;5069738;28;20759;-76
2023/01/01 00:21:21;;;;;;;11.57;5.00;;;17.50;99.90;;;;;;5074770;28;20191;-77
2023/01/01 00:23:47;;;;;;;10.90;5.00;;;17.40;99.90;;;;;;5069479;28;20577;-76
2023/01/01 00:26:15;;;;;;;6.97;3.73;;;17.40;99.90;;;;;;5069516;28;20168;-76
2023/01/01 00:28:41;;;;;;;6.70;4.00;;;17.40;99.90;;;;;;5069659;28;20199;-77
2023/01/01 00:31:08;;;;;;;5.37;3.80;;;17.40;99.90;;;;;;5069103;28;20717;-76
2023/01/01 00:33:34;;;;;;;3.83;3.33;;;17.30;99.90;;;;;;5069411;28;20586;-77
2023/01/01 00:36:11;;;;;;;5.00;2.77;;;17.30;99.90;;;;;;5051566;28;20563;-76
2023/01/01 00:38:37;;;;;;;4.40;2.97;;;17.30;99.90;;;;;;5069634;28;20196;-76
2023/01/01 00:41:03;;;;;;;4.23;2.70;;;17.30;99.90;;;;;;5069292;28;20555;-76
2023/01/01 00:43:29;;;;;;;4.50;2.50;;;17.20;99.90;;;;;;5069114;28;20813;-76
2023/01/01 00:45:54;;;;;;;5.33;2.97;;;17.20;99.90;;;;;;5052776;28;20186;-76
2023/01/01 00:48:20;;;;;;;4.70;3.03;;;17.20;99.90;;;;;;5031165;28;20197;-77
2023/01/01 00:50:47;;;;;;;4.33;2.67;;;17.20;99.90;;;;;;5043790;28;20196;-76
2023/01/01 00:53:13;;;;;;;4.63;2.80;;;17.20;99.90;;;;;;5034291;28;20643;-76
2023/01/01 00:55:39;;;;;;;4.10;2.17;;;17.10;99.90;;;;;;5051660;28;20632;-75
2023/01/01 00:58:05;;;;;;;5.37;1.53;;;17.10;99.90;;;;;;5056709;28;21032;-75
2023/01/01 01:00:31;;;;;;;3.10;1.47;;;17.10;99.90;;;;;;5051402;28;20575;-75
2023/01/01 01:02:57;;;;;;;2.73;1.80;;;17.00;99.90;;;;;;5050924;28;20163;-75
2023/01/01 01:05:22;;;;;;;4.20;1.30;;;17.00;99.90;;;;;;5050712;28;20574;-75
2023/01/01 01:07:48;;;;;;;5.10;1.50;;;17.00;99.90;;;;;;5050804;28;20203;-76
2023/01/01 01:10:14;;;;;;;2.57;1.37;;;16.90;99.90;;;;;;5051315;28;20598;-75
2023/01/01 01:12:40;;;;;;;1.73;0.80;;;16.90;99.90;;;;;;5068970;28;20204;-75
2023/01/01 01:15:07;;;;;;;3.00;1.20;;;16.90;99.90;;;;;;5050276;28;20570;-74
2023/01/01 01:17:33;;;;;;;2.63;0.97;;;16.90;99.90;;;;;;5050927;28;20697;-75
2023/01/01 01:19:58;;;;;;;2.83;1.00;;;16.90;99.90;;;;;;5050888;28;20685;-75
2023/01/01 01:22:25;;;;;;;5.33;1.63;;;16.80;99.90;;;;;;5017608;28;20180;-75
2023/01/01 01:24:50;;;;;;;2.07;1.03;;;16.80;99.90;;;;;;5050293;28;20176;-75
2023/01/01 01:27:16;;;;;;;5.43;2.10;;;16.80;99.90;;;;;;5034313;28;21164;-75
2023/01/01 01:29:42;;;;;;;2.27;1.00;;;16.80;99.90;;;;;;5050458;28;20545;-75
2023/01/01 01:32:09;;;;;;;3.13;1.07;;;16.80;99.90;;;;;;5050631;28;20249;-75
2023/01/01 01:34:35;;;;;;;2.30;1.10;;;16.80;99.90;;;;;;5054676;28;20180;-75
2023/01/01 01:37:01;;;;;;;3.20;1.10;;;16.80;99.90;;;;;;5070011;28;20636;-74
2023/01/01 01:39:26;;;;;;;3.43;0.93;;;16.80;99.90;;;;;;5068629;28;20187;-75
2023/01/01 01:41:52;;;;;;;1.97;0.93;;;16.80;99.90;;;;;;5050680;28;20185;-74
2023/01/01 01:44:58;;;;;;;3.20;1.17;;;16.80;99.90;;;;;;5050201;28;20176;-74
2023/01/01 01:47:42;;;;;;;5.07;1.00;;;16.70;99.90;;;;;;5068821;28;20607;-74
2023/01/01 01:50:15;;;;;;;1.90;0.93;;;16.70;99.90;;;;;;5068672;28;20628;-73
2023/01/01 01:52:52;;;;;;;2.47;1.50;;;16.70;99.90;;;;;;5050573;28;21224;-73
2023/01/01 01:55:18;;;;;;;2.00;0.90;;;16.70;99.90;;;;;;5050645;28;20581;-73
2023/01/01 01:57:44;;;;;;;6.70;1.10;;;16.70;99.90;;;;;;5053129;28;20611;-74
2023/01/01 02:00:10;;;;;;;3.17;1.27;;;16.70;99.90;;;;;;5055138;28;20582;-74
2023/01/01 02:02:45;;;;;;;5.07;1.33;;;16.60;99.90;;;;;;5039280;28;20219;-74
2023/01/01 02:05:12;;;;;;;4.60;1.10;;;16.60;99.90;;;;;;5051737;28;21169;-74
2023/01/01 02:07:38;;;;;;;3.10;1.00;;;16.60;99.90;;;;;;5018457;28;20622;-78
2023/01/01 02:10:04;;;;;;;2.30;1.00;;;16.60;99.90;;;;;;5035609;28;20595;-78
2023/01/01 02:12:31;;;;;;;5.10;1.30;;;16.50;99.90;;;;;;5023661;28;20737;-77
2023/01/01 02:14:57;;;;;;;5.30;1.97;;;16.50;99.90;;;;;;5034048;28;20641;-79
2023/01/01 02:17:41;;;;;;;2.67;1.10;;;16.50;99.90;;;;;;5034162;28;20595;-77
2023/01/01 02:20:52;;;;;;;2.37;1.07;;;16.50;99.90;;;;;;5034849;28;20614;-77
2023/01/01 02:23:38;;;;;;;1.87;0.70;;;16.40;99.90;;;;;;5015060;28;20653;-77
2023/01/01 02:26:37;;;;;;;1.90;0.80;;;16.50;99.90;;;;;;5051939;28;20568;-78
2023/01/01 02:29:24;;;;;;;2.50;0.70;;;16.40;99.90;;;;;;5033576;28;20626;-77
2023/01/01 02:32:13;;;;;;;3.43;0.80;;;16.50;99.90;;;;;;5051564;28;21443;-77
2023/01/01 02:35:34;;;;;;;2.57;0.93;;;16.50;99.90;;;;;;5033134;28;21340;-78
2023/01/01 02:38:22;;;;;;;2.77;0.90;;;16.50;99.90;;;;;;4998714;28;20623;-78
2023/01/01 02:41:02;;;;;;;3.10;0.97;;;16.50;99.90;;;;;;5017237;28;21045;-78
2023/01/01 02:43:28;;;;;;;2.07;0.90;;;16.50;99.90;;;;;;5032761;28;20571;-78
2023/01/01 02:45:54;;;;;;;2.73;0.87;;;16.60;99.90;;;;;;5033629;28;20666;-78
2023/01/01 02:48:39;;;;;;;4.37;1.97;;;16.60;99.90;;;;;;5034900;28;20259;-79
2023/01/01 02:51:28;;;;;;;2.20;0.90;;;16.50;99.90;;;;;;5052875;28;20615;-78
2023/01/01 02:54:16;;;;;;;2.97;0.80;;;16.60;99.90;;;;;;5051395;28;20570;-78
2023/01/01 02:57:04;;;;;;;2.07;0.90;;;16.50;99.90;;;;;;5033475;28;20582;-78
2023/01/01 03:02:44;;;;;;;1.77;0.70;;;16.60;99.90;;;;;;5033140;28;20629;-77
2023/01/01 03:08:53;;;;;;;1.63;0.80;;;16.70;99.90;;;;;;5011468;28;20986;-76
2023/01/01 03:11:22;;;;;;;4.73;0.90;;;16.70;99.90;;;;;;5032550;28;20630;-76
2023/01/01 03:14:00;;;;;;;2.87;0.73;;;16.70;99.90;;;;;;5032848;28;20575;-76
2023/01/01 03:16:33;;;;;;;1.70;0.70;;;16.70;99.90;;;;;;5032794;28;20615;-76
2023/01/01 03:19:22;;;;;;;1.67;0.70;;;16.70;99.90;;;;;;5016477;28;21174;-76
2023/01/01 03:22:02;;;;;;;1.77;1.00;;;16.70;99.90;;;;;;5015933;28;20583;-77
2023/01/01 03:24:52;;;;;;;2.70;0.80;;;16.80;99.90;;;;;;5050826;28;21003;-76
2023/01/01 03:27:31;;;;;;;3.87;1.00;;;16.80;99.90;;;;;;5036888;28;21154;-76
2023/01/01 03:30:07;;;;;;;5.07;0.80;;;16.80;99.90;;;;;;5016355;28;20583;-76
2023/01/01 03:33:00;;;;;;;4.57;0.70;;;16.90;99.90;;;;;;5032083;28;20761;-76
2023/01/01 03:35:47;;;;;;;5.43;0.80;;;16.80;99.90;;;;;;5050089;28;20591;-77
2023/01/01 03:38:18;;;;;;;2.40;0.70;;;16.90;99.90;;;;;;5032462;28;20611;-77
2023/01/01 03:40:47;;;;;;;1.50;0.70;;;16.90;99.90;;;;;;5032587;28;20594;-76
2023/01/01 03:43:23;;;;;;;1.87;0.90;;;16.90;99.90;;;;;;5031511;28;21081;-76
2023/01/01 03:45:51;;;;;;;2.03;0.70;;;16.90;99.90;;;;;;5050417;28;20586;-76
2023/01/01 03:48:18;;;;;;;3.40;0.90;;;17.00;99.90;;;;;;5032195;28;21085;-76
2023/01/01 03:51:13;;;;;;;1.93;0.80;;;17.00;99.90;;;;;;5032558;28;20574;-76
2023/01/01 03:53:41;;;;;;;5.73;1.00;;;17.00;99.90;;;;;;5031721;28;20633;-76
2023/01/01 03:56:18;;;;;;;3.17;0.90;;;17.00;99.90;;;;;;5015773;28;20584;-76
2023/01/01 03:58:59;;;;;;;3.03;0.90;;;17.00;99.90;;;;;;5031967;28;20646;-76
2023/01/01 04:01:40;;;;;;;4.73;0.90;;;17.00;99.90;;;;;;5032287;28;20670;-76
2023/01/01 04:04:06;;;;;;;1.37;0.60;;;17.00;99.90;;;;;;5035394;28;20587;-76
2023/01/01 04:06:33;;;;;;;1.67;0.70;;;17.00;99.90;;;;;;5050194;28;21147;-76
2023/01/01 04:09:00;;;;;;;2.27;0.80;;;17.00;99.90;;;;;;5049696;28;20781;-75
2023/01/01 04:14:32;;;;;;;3.10;0.90;;;17.10;99.90;;;;;;5015586;28;20629;-76
2023/01/01 04:16:59;;;;;;;2.87;0.80;;;17.00;99.90;;;;;;5031851;28;20580;-76
2023/01/01 04:19:25;;;;;;;1.97;0.60;;;17.00;99.90;;;;;;5032004;28;20710;-76
2023/01/01 04:21:51;;;;;;;4.20;0.93;;;17.10;99.90;;;;;;5049322;28;21084;-75
2023/01/01 04:24:16;;;;;;;2.33;0.90;;;17.10;99.90;;;;;;5049013;28;20181;-76
2023/01/01 04:26:42;;;;;;;3.13;0.83;;;17.10;99.90;;;;;;5031465;28;20268;-76
2023/01/01 04:29:08;;;;;;;3.10;0.80;;;17.10;99.90;;;;;;5049615;28;20185;-76
2023/01/01 04:31:34;;;;;;;2.33;0.80;;;17.10;99.90;;;;;;5031085;28;20193;-76
2023/01/01 04:34:00;;;;;;;3.20;1.00;;;17.10;99.90;;;;;;5049154;28;20612;-76
2023/01/01 04:36:26;;;;;;;4.10;0.90;;;17.10;99.90;;;;;;5031518;28;20572;-76
2023/01/01 04:38:51;;;;;;;3.27;1.10;;;17.10;99.90;;;;;;5031422;28;21161;-75
2023/01/01 04:41:17;;;;;;;1.70;0.80;;;17.10;99.90;;;;;;5037208;28;20656;-75
2023/01/01 04:43:49;;;;;;;3.30;0.93;;;17.10;99.90;;;;;;5030816;28;20181;-76
2023/01/01 04:46:16;;;;;;;4.70;1.00;;;17.10;99.90;;;;;;5049327;28;20582;-76
2023/01/01 04:48:42;;;;;;;1.70;1.23;;;17.10;99.90;;;;;;5014758;28;20689;-76
2023/01/01 04:51:10;;;;;;;2.07;0.77;;;17.10;99.90;;;;;;5049074;28;20623;-76
2023/01/01 04:53:36;;;;;;;3.00;0.80;;;17.10;99.90;;;;;;5030419;28;20176;-76
2023/01/01 04:56:06;;;;;;;2.07;0.80;;;17.10;99.90;;;;;;5031439;28;21178;-76
2023/01/01 04:58:34;;;;;;;2.63;0.90;;;17.10;99.90;;;;;;5049000;28;20207;-77
2023/01/01 05:01:01;;;;;;;3.23;0.80;;;17.10;99.90;;;;;;5032080;28;20919;-76
2023/01/01 05:03:27;;;;;;;2.90;0.90;;;17.10;99.90;;;;;;5014209;28;20590;-76
2023/01/01 05:06:04;;;;;;;2.10;0.80;;;17.10;99.90;;;;;;5031368;28;20928;-75
2023/01/01 05:08:31;;;;;;;8.87;7.83;;;17.10;99.90;;;;;;5013688;28;21348;-75
2023/01/01 05:11:01;;;;;;;5.10;4.43;;;17.10;99.90;;;;;;5031081;28;20627;-75
2023/01/01 05:13:27;;;;;;;4.17;2.07;;;17.10;99.90;;;;;;5038603;28;21057;-75
2023/01/01 05:15:52;;;;;;;2.63;1.10;;;17.10;99.90;;;;;;5030903;28;20671;-76
2023/01/01 05:18:18;;;;;;;2.97;1.33;;;17.10;99.90;;;;;;5035131;28;20250;-74
2023/01/01 05:20:44;;;;;;;4.50;1.10;;;17.10;99.90;;;;;;5048858;28;20306;-76
2023/01/01 05:23:09;;;;;;;5.30;1.57;;;17.10;99.90;;;;;;5030208;28;20181;-76
2023/01/01 05:25:35;;;;;;;2.17;1.10;;;17.00;99.90;;;;;;5030789;28;20229;-76
2023/01/01 05:28:01;;;;;;;2.60;0.80;;;17.10;99.90;;;;;;5031167;28;20197;-75
2023/01/01 05:30:27;;;;;;;4.03;0.80;;;17.10;99.90;;;;;;5030842;28;20180;-75
2023/01/01 05:32:53;;;;;;;3.40;1.50;;;17.00;99.90;;;;;;5033400;28;20631;-75
2023/01/01 05:35:18;;;;;;;2.70;0.90;;;17.00;99.90;;;;;;5052288;28;20165;-75
2023/01/01 05:37:44;;;;;;;2.23;0.80;;;17.00;99.90;;;;;;5053569;28;20458;-75
2023/01/01 05:40:10;;;;;;;3.10;0.93;;;17.00;99.90;;;;;;5034991;28;20180;-75
2023/01/01 05:42:36;;;;;;;2.53;1.03;;;17.00;99.90;;;;;;5017732;28;20181;-75
2023/01/01 05:45:03;;;;;;;6.53;1.30;;;17.00;99.90;;;;;;5034378;28;20944;-75
2023/01/01 05:47:28;;;;;;;4.30;0.90;;;17.00;99.90;;;;;;5017995;28;20205;-75
2023/01/01 05:49:54;;;;;;;2.17;0.80;;;16.90;99.90;;;;;;5052531;28;20667;-75
2023/01/01 05:52:20;;;;;;;2.00;0.80;;;16.90;99.90;;;;;;5051912;28;20716;-75
2023/01/01 05:54:46;;;;;;;4.90;0.97;;;16.90;99.90;;;;;;5040504;28;20172;-76
2023/01/01 05:57:12;;;;;;;2.30;0.90;;;16.90;99.90;;;;;;5055643;28;20587;-75
2023/01/01 05:59:38;;;;;;;2.43;0.80;;;16.90;99.90;;;;;;5034539;28;20173;-75
2023/01/01 06:02:03;;;;;;;5.73;0.87;;;16.80;99.90;;;;;;5051810;28;20207;-76
2023/01/01 06:04:29;;;;;;;3.47;1.00;;;16.80;99.90;;;;;;5033919;28;20169;-75
2023/01/01 06:06:55;;;;;;;2.10;0.90;;;16.90;99.90;;;;;;5034235;28;20173;-75
2023/01/01 06:09:20;;;;;;;4.53;0.93;;;16.90;99.90;;;;;;5033817;28;20204;-75
2023/01/01 06:11:46;;;;;;;2.47;0.83;;;16.90;99.90;;;;;;5033900;28;20208;-75
2023/01/01 06:14:12;;;;;;;2.47;1.10;;;16.90;99.90;;;;;;5033660;28;20169;-75
2023/01/01 06:16:37;;;;;;;2.60;1.30;;;16.90;99.90;;;;;;5034354;28;20164;-75
2023/01/01 06:19:03;;;;;;;3.23;0.83;;;16.90;99.90;;;;;;5034140;28;20275;-75
2023/01/01 06:21:29;;;;;;;4.07;0.90;;;16.80;99.90;;;;;;5033828;28;20176;-75
2023/01/01 06:23:57;;;;;;;2.47;1.07;;;16.80;99.90;;;;;;5051403;28;20173;-75
2023/01/01 06:26:25;;;;;;;5.37;1.17;;;16.80;99.90;;;;;;5052158;28;20659;-75
2023/01/01 06:28:51;;;;;;;1.97;0.80;;;16.80;99.90;;;;;;5017168;28;20688;-75
2023/01/01 06:31:19;;;;;;;3.63;1.10;;;16.80;99.90;;;;;;5054606;28;20726;-77
2023/01/01 06:33:45;;;;;;;4.43;1.33;;;16.80;99.90;;;;;;5035699;28;20584;-76
2023/01/01 06:36:14;;;;;;;2.23;0.90;;;16.80;99.90;;;;;;5033912;28;20588;-76
2023/01/01 06:38:42;;;;;;;3.90;1.13;;;16.70;99.90;;;;;;5052297;28;21006;-77
2023/01/01 06:41:13;;;;;;;2.63;1.03;;;16.80;99.90;;;;;;5060852;28;20599;-77
2023/01/01 06:43:39;;;;;;;2.17;1.00;;;16.70;99.90;;;;;;5043718;28;20611;-77
2023/01/01 06:46:30;;;;;;;6.63;0.90;;;16.80;99.90;;;;;;5045207;28;20637;-77
2023/01/01 06:48:58;;;;;;;4.33;1.03;;;16.80;99.90;;;;;;5040353;28;20635;-76
2023/01/01 06:51:28;;;;;;;2.27;0.83;;;16.80;99.90;;;;;;5057739;28;20726;-76
2023/01/01 06:53:56;;;;;;;3.23;1.00;;;16.70;99.90;;;;;;5053067;28;21161;-76
2023/01/01 06:56:22;;;;;;;2.87;1.60;;;16.80;99.90;;;;;;5053125;28;20570;-77
2023/01/01 06:58:48;;;;;;;2.87;0.97;;;16.80;99.90;;;;;;5053532;28;20695;-77
2023/01/01 07:01:19;;;;;;;5.70;1.20;;;16.80;99.90;;;;;;5052910;28;20574;-76
2023/01/01 07:03:56;;;;;;;3.27;0.97;;;16.80;99.90;;;;;;5052752;28;20176;-76
2023/01/01 07:06:23;;;;;;;2.33;1.10;;;16.80;99.90;;;;;;5070807;28;20574;-76
2023/01/01 07:08:49;;;;;;;2.90;1.07;;;16.80;99.90;;;;;;5057438;28;20706;-77
2023/01/01 07:11:15;;;;;;;3.90;1.10;;;16.80;99.90;;;;;;5071526;28;21555;-75
2023/01/01 07:13:42;;;;;;;3.37;0.90;;;16.90;99.90;;;;;;5070360;28;20681;-75
2023/01/01 07:16:08;;;;;;;4.17;1.10;;;16.90;99.90;;;;;;5053069;28;21221;-75
2023/01/01 07:18:34;;;;;;;1.80;0.87;;;16.90;99.90;;;;;;5052583;28;20540;-75
2023/01/01 07:21:04;;;;;;;4.07;1.03;;;16.90;99.90;;;;;;5069621;28;20207;-75
2023/01/01 07:23:33;;;;;;;3.77;1.33;;;16.90;99.90;;;;;;5052032;28;20181;-75
2023/01/01 07:25:59;;;;;;;2.63;1.00;;;16.90;99.90;;;;;;5052839;28;20583;-75
2023/01/01 07:28:26;;;;;;;4.83;0.87;;;16.90;99.90;;;;;;5052307;28;20618;-75
2023/01/01 07:30:55;;;;;;;3.30;0.93;;;17.00;99.90;;;;;;5052496;28;21156;-75
2023/01/01 07:33:22;;;;;;;4.70;1.53;;;17.00;99.90;;;;;;5069518;28;20605;-75
2023/01/01 07:35:48;;;;;;;1.80;0.87;;;17.00;99.90;;;;;;5070530;28;20606;-75
2023/01/01 07:38:14;;;;;;;3.20;1.03;;;17.00;99.90;;;;;;5052420;28;20638;-75
2023/01/01 07:40:40;;;;;;;2.27;1.03;;;17.00;99.90;;;;;;5070245;28;20579;-74
2023/01/01 07:43:07;;;;;;;4.70;0.77;;;17.00;99.90;;;;;;5051933;28;20605;-75
2023/01/01 07:45:33;;;;;;;5.07;1.10;;;17.00;99.90;;;;;;5053141;28;20595;-74
2023/01/01 07:48:00;;;;;;;3.70;0.97;;;17.00;99.90;;;;;;5053415;28;20626;-74
2023/01/01 07:50:29;;;;;;;3.63;1.00;;;17.00;99.90;;;;;;5052025;28;20594;-74
2023/01/01 07:52:55;;;;;;;1.87;1.03;;;17.00;99.90;;;;;;5069928;28;21088;-75
2023/01/01 07:55:20;;;;;;;4.50;2.40;;;17.00;99.90;;;;;;5051159;28;20682;-75
2023/01/01 07:57:47;;;;;;;2.90;1.10;;;17.00;99.90;;;;;;5046535;28;20284;-75
2023/01/01 08:00:17;;;;;;;2.40;0.90;;;17.00;99.90;;;;;;5049725;28;20181;-75
2023/01/01 08:02:43;;;;;;;3.60;1.07;;;17.10;99.90;;;;;;5051672;28;20578;-74
2023/01/01 08:05:09;;;;;;;1.90;0.90;;;17.10;99.90;;;;;;5051454;28;20582;-75
2023/01/01 08:07:35;;;;;;;4.07;0.90;;;17.00;99.90;;;;;;5051954;28;20633;-75
2023/01/01 08:10:01;;;;;;;2.70;1.00;;;17.10;99.90;;;;;;5035488;28;20589;-74
2023/01/01 08:12:26;;;;;;;3.00;0.90;;;17.00;99.90;;;;;;5069349;28;20229;-74
2023/01/01 08:14:52;;;;;;;4.60;1.07;;;17.10;99.90;;;;;;5069445;28;21173;-74
2023/01/01 08:17:18;;;;;;;1.97;0.73;;;17.00;99.90;;;;;;5069522;28;20191;-74
2023/01/01 08:19:45;;;;;;;2.97;0.80;;;17.10;99.90;;;;;;5052146;28;20164;-74
2023/01/01 08:22:11;;;;;;;2.63;0.80;;;17.10;99.90;;;;;;5051339;28;20196;-74
2023/01/01 08:24:37;;;;;;;3.30;0.90;;;17.00;99.90;;;;;;5053126;28;20621;-74
2023/01/01 08:27:03;;;;;;;2.80;1.00;;;17.00;99.90;;;;;;5051539;28;20685;-74
2023/01/01 08:29:28;;;;;;;3.33;0.90;;;17.10;99.90;;;;;;5069522;28;20176;-74
2023/01/01 08:31:54;;;;;;;2.23;1.13;;;17.00;99.90;;;;;;5068602;28;20204;-74
2023/01/01 08:34:20;;;;;;;3.17;1.00;;;17.00;99.90;;;;;;5069161;28;20239;-73
2023/01/01 08:36:45;;;;;;;2.70;1.10;;;17.10;99.90;;;;;;5051731;28;20239;-74
2023/01/01 08:39:11;;;;;;;5.23;0.80;;;17.10;99.90;;;;;;5051106;28;20196;-74
2023/01/01 08:41:37;;;;;;;2.37;1.10;;;17.10;99.90;;;;;;5051205;28;20173;-74
2023/01/01 08:44:02;;;;;;;2.67;1.10;;;17.10;99.90;;;;;;5068992;28;20199;-74
2023/01/01 08:46:28;;;;;;;2.63;0.90;;;17.10;99.90;;;;;;5069442;28;20179;-74
2023/01/01 08:48:54;;;;;;;5.90;1.10;;;17.00;99.90;;;;;;5069248;28;20534;-74
2023/01/01 08:51:19;;;;;;;4.80;1.10;;;17.00;99.90;;;;;;5050933;28;20574;-74
2023/01/01 08:53:45;;;;;;;5.23;0.93;;;17.00;99.90;;;;;;5050778;28;20575;-74
2023/01/01 08:56:11;;;;;;;2.53;0.90;;;17.00;99.90;;;;;;5034787;28;20585;-74
2023/01/01 08:58:39;;;;;;;4.43;1.00;;;17.00;99.90;;;;;;5069059;28;20192;-74
2023/01/01 09:01:07;;;;;;;1.73;0.70;;;17.00;99.90;;;;;;5070919;28;20900;-74
2023/01/01 09:03:33;;;;;;;2.50;1.00;;;17.00;99.90;;;;;;5069004;28;20563;-74
2023/01/01 09:05:59;;;;;;;3.90;1.23;;;17.00;99.90;;;;;;5050905;28;20582;-75
2023/01/01 09:08:25;;;;;;;3.60;1.10;;;17.00;99.90;;;;;;5069064;28;20624;-75
2023/01/01 09:10:52;;;;;;;9.13;2.47;;;17.00;99.90;;;;;;5050913;28;20215;-75
2023/01/01 09:13:20;;;;;;;2.60;1.00;;;17.00;99.90;;;;;;5033607;28;20923;-74
2023/01/01 09:15:47;;;;;;;2.70;1.10;;;17.00;99.90;;;;;;5069070;28;20567;-75
2023/01/01 09:18:13;;;;;;;2.73;0.90;;;17.00;99.90;;;;;;5067809;28;21234;-75
2023/01/01 09:20:39;;;;;;;3.00;0.80;;;17.00;99.90;;;;;;5068762;28;20571;-75
2023/01/01 09:23:06;;;;;;;2.30;1.00;;;17.00;99.90;;;;;;5050407;28;20636;-75
2023/01/01 09:25:33;;;;;;;5.00;1.43;;;17.00;99.90;;;;;;5069040;28;20732;-75
2023/01/01 09:28:01;;;;;;;2.13;0.70;;;17.00;99.90;;;;;;5068636;28;21221;-75
2023/01/01 09:30:27;;;;;;;2.30;0.90;;;17.00;99.90;;;;;;5055334;28;20591;-75
2023/01/01 09:32:53;;;;;;;2.03;0.80;;;17.00;99.90;;;;;;5045762;28;20692;-76
2023/01/01 09:35:19;;;;;;;2.83;1.07;;;17.00;99.90;;;;;;5030591;28;21063;-75
2023/01/01 09:37:45;;;;;;;3.63;1.20;;;17.00;99.90;;;;;;5049491;28;20242;-76
2023/01/01 09:40:27;;;;;;;2.17;0.80;;;17.00;99.90;;;;;;5013486;28;20585;-75
2023/01/01 09:43:28;;;;;;;2.40;0.70;;;17.10;99.90;;;;;;5038637;28;20720;-75
2023/01/01 09:46:05;;;;;;;3.53;1.00;;;17.10;99.90;;;;;;5022840;28;20634;-76
2023/01/01 09:48:32;;;;;;;2.37;1.13;;;17.10;99.90;;;;;;5030987;28;20603;-76
2023/01/01 09:51:02;;;;;;;2.10;0.80;;;17.20;99.90;;;;;;5049541;28;21151;-75
2023/01/01 09:53:31;;;;;;;2.00;0.80;;;17.20;99.90;;;;;;5049014;28;20579;-75
2023/01/01 09:56:02;;;;;;;3.30;1.10;;;17.20;99.90;;;;;;5029851;28;20592;-76
2023/01/01 09:58:37;;;;;;;4.53;1.20;;;17.20;99.90;;;;;;5048178;28;20937;-75
2023/01/01 10:01:18;;;;;;;5.90;0.93;;;17.20;99.90;;;;;;5041738;28;20582;-76
2023/01/01 10:03:56;;;;;;;3.30;0.90;;;17.30;99.90;;;;;;5048103;28;20579;-76
2023/01/01 10:06:29;;;;;;;3.20;0.97;;;17.30;99.90;;;;;;5030794;28;20932;-77
2023/01/01 10:09:30;;;;;;;3.40;1.00;;;17.40;99.90;;;;;;5030319;28;20716;-75
2023/01/01 10:12:07;;;;;;;3.20;0.80;;;17.40;99.90;;;;;;4984775;28;20681;-76
2023/01/01 10:14:41;;;;;;;1.90;0.80;;;17.50;99.90;;;;;;5033869;28;20614;-75
2023/01/01 10:17:21;;;;;;;2.37;0.90;;;17.50;99.90;;;;;;5046707;28;20629;-76
2023/01/01 10:19:55;;;;;;;3.40;0.80;;;17.60;99.90;;;;;;5046969;28;20579;-75
2023/01/01 10:22:35;;;;;;;2.93;1.00;;;17.60;99.90;;;;;;5051616;28;20584;-75
2023/01/01 10:25:23;;;;;;;1.90;0.90;;;17.60;99.90;;;;;;5032940;28;20575;-75
2023/01/01 10:27:58;;;;;;;4.47;1.20;;;17.60;99.90;;;;;;5033869;28;20614;-76
2023/01/01 10:30:25;;;;;;;2.37;1.03;;;17.60;99.90;;;;;;5052008;28;20570;-75
2023/01/01 10:32:53;;;;;;;6.80;1.10;;;17.60;99.90;;;;;;5051980;28;20627;-75
2023/01/01 10:35:33;;;;;;;2.30;0.90;;;17.50;99.90;;;;;;5051163;28;20628;-75
2023/01/01 10:38:00;;;;;;;4.00;0.90;;;17.50;99.90;;;;;;5028132;28;20619;-74
2023/01/01 10:40:28;;;;;;;3.20;1.10;;;17.50;99.90;;;;;;5026441;28;20591;-74
2023/01/01 10:42:59;;;;;;;6.73;1.67;;;17.50;99.90;;;;;;5059663;28;20625;-74
2023/01/01 10:45:30;;;;;;;5.20;1.30;;;17.50;99.90;;;;;;5049762;28;20590;-74
2023/01/01 10:48:17;;;;;;;3.90;0.90;;;17.50;99.90;;;;;;5051239;28;20615;-73
2023/01/01 10:50:50;;;;;;;4.17;0.90;;;17.50;99.90;;;;;;5033826;28;20586;-73
2023/01/01 10:53:20;;;;;;;4.60;0.97;;;17.50;99.90;;;;;;5034630;28;20580;-73
2023/01/01 10:55:51;;;;;;;2.83;1.00;;;17.50;99.90;;;;;;5051405;28;21020;-73
2023/01/01 10:58:42;;;;;;;3.03;1.10;;;17.50;99.90;;;;;;5051167;28;20672;-73
2023/01/01 11:01:23;;;;;;;4.00;0.93;;;17.50;99.90;;;;;;5033208;28;20698;-73
2023/01/01 11:04:07;;;;;;;2.40;1.00;;;17.50;99.90;;;;;;5050683;28;20580;-74
2023/01/01 11:06:38;;;;;;;3.83;1.17;;;17.50;99.90;;;;;;5034276;28;20575;-73
2023/01/01 11:09:27;;;;;;;3.93;1.60;;;17.50;99.90;;;;;;5052298;28;20626;-73
2023/01/01 11:11:58;;;;;;;4.10;1.10;;;17.50;99.90;;;;;;5034473;28;20646;-74
2023/01/01 11:14:52;;;;;;;5.20;2.03;;;17.50;99.90;;;;;;5051403;28;20975;-73
2023/01/01 11:17:23;;;;;;;2.73;1.10;;;17.50;99.90;;;;;;5047238;28;20610;-73
2023/01/01 11:19:50;;;;;;;3.60;1.03;;;17.50;99.90;;;;;;5030133;28;20591;-73
2023/01/01 11:22:47;;;;;;;4.83;1.50;;;17.50;99.90;;;;;;5014071;28;20581;-73
2023/01/01 11:25:21;;;;;;;2.33;1.10;;;17.50;99.90;;;;;;5012272;28;20599;-73
2023/01/01 11:27:48;;;;;;;3.10;1.00;;;17.50;99.90;;;;;;4996950;28;20620;-73
2023/01/01 11:30:23;;;;;;;3.93;0.90;;;17.50;99.90;;;;;;5013805;28;20572;-73
2023/01/01 11:33:01;;;;;;;3.37;0.93;;;17.50;99.90;;;;;;5030679;28;20623;-73
2023/01/01 11:35:31;;;;;;;5.73;1.30;;;17.50;99.90;;;;;;5012464;28;21151;-73
2023/01/01 11:37:58;;;;;;;3.43;1.00;;;17.50;99.90;;;;;;5031045;28;21050;-73
2023/01/01 11:40:31;;;;;;;3.47;2.00;;;17.50;99.90;;;;;;5030494;28;20573;-73
2023/01/01 11:42:59;;;;;;;5.23;1.27;;;17.50;99.90;;;;;;5030496;28;20584;-73
2023/01/01 11:45:41;;;;;;;4.00;1.07;;;17.50;99.90;;;;;;5012507;28;20604;-73
2023/01/01 11:48:20;;;;;;;2.73;0.90;;;17.50;99.90;;;;;;5019350;28;21813;-73
2023/01/01 11:50:52;;;;;;;3.00;1.03;;;17.50;99.90;;;;;;5050063;28;20591;-72
2023/01/01 11:53:26;;;;;;;2.40;1.00;;;17.50;99.90;;;;;;5049564;28;20594;-73
2023/01/01 11:56:12;;;;;;;4.33;0.90;;;17.50;99.90;;;;;;5036484;28;20665;-73
2023/01/01 11:59:11;;;;;;;3.73;1.17;;;17.50;99.90;;;;;;5031602;28;20630;-73
2023/01/01 12:01:50;;;;;;;4.70;0.80;;;17.50;99.90;;;;;;5043475;28;20584;-72
2023/01/01 12:04:23;;;;;;;2.90;0.90;;;17.50;99.90;;;;;;5023402;28;20611;-72
2023/01/01 12:06:58;;;;;;;3.30;0.93;;;17.60;99.90;;;;;;5052315;28;20587;-73
2023/01/01 12:09:27;;;;;;;2.80;1.00;;;17.60;99.90;;;;;;5050082;28;20579;-73
2023/01/01 12:12:19;;;;;;;1.77;0.90;;;17.60;99.90;;;;;;5049561;28;20755;-73
2023/01/01 12:14:56;;;;;;;2.87;0.90;;;17.60;99.90;;;;;;5049662;28;20567;-73
2023/01/01 12:17:30;;;;;;;3.07;1.00;;;17.60;99.90;;;;;;5029666;28;20600;-73
2023/01/01 12:20:11;;;;;;;3.47;1.00;;;17.60;99.90;;;;;;5012226;28;20576;-73
2023/01/01 12:22:37;;;;;;;3.30;0.90;;;17.60;99.90;;;;;;5011322;28;20576;-73
2023/01/01 12:25:04;;;;;;;3.37;1.13;;;17.60;99.90;;;;;;5029384;28;21185;-73
2023/01/01 12:28:00;;;;;;;3.47;1.03;;;17.60;99.90;;;;;;5029418;28;20592;-73
2023/01/01 12:30:46;;;;;;;5.63;0.90;;;17.60;99.90;;;;;;5029932;28;20607;-73
2023/01/01 12:33:24;;;;;;;4.07;1.10;;;17.60;99.90;;;;;;4994331;28;20631;-73
2023/01/01 12:36:00;;;;;;;3.93;1.20;;;17.60;99.90;;;;;;5029701;28;20564;-72
2023/01/01 12:39:07;;;;;;;3.40;1.23;;;17.60;99.90;;;;;;5028795;28;20690;-72
2023/01/01 12:41:51;;;;;;;3.43;2.60;;;17.60;99.90;;;;;;4977803;28;20589;-72
2023/01/01 12:44:20;;;;;;;3.73;1.00;;;17.60;99.90;;;;;;5031352;28;20573;-75
2023/01/01 12:46:52;;;;;;;3.20;1.10;;;17.60;99.90;;;;;;5011933;28;20646;-74
2023/01/01 12:49:23;;;;;;;2.63;0.87;;;17.60;99.90;;;;;;4995572;28;20600;-76
2023/01/01 12:51:57;;;;;;;2.40;0.90;;;17.60;99.90;;;;;;5030096;28;20647;-75
2023/01/01 12:54:47;;;;;;;4.70;1.90;;;17.60;99.90;;;;;;5012253;28;20580;-75
2023/01/01 12:57:34;;;;;;;2.90;1.10;;;17.60;99.90;;;;;;5029533;28;20587;-76
2023/01/01 13:00:10;;;;;;;4.90;1.13;;;17.60;99.90;;;;;;5030280;28;20572;-74
2023/01/01 13:02:40;;;;;;;1.80;0.87;;;17.60;99.90;;;;;;5029328;28;20612;-76
2023/01/01 13:05:23;;;;;;;2.80;1.00;;;17.60;99.90;;;;;;5054789;28;20699;-76
2023/01/01 13:07:54;;;;;;;2.60;0.93;;;17.50;99.90;;;;;;5037475;28;20626;-77
2023/01/01 13:10:42;;;;;;;2.37;0.80;;;17.60;99.90;;;;;;5071199;28;20932;-76
2023/01/01 13:13:11;;;;;;;3.70;1.10;;;17.60;99.90;;;;;;5039653;28;21120;-77
2023/01/01 13:15:37;;;;;;;4.50;1.17;;;17.50;99.90;;;;;;5032763;28;20630;-77
2023/01/01 13:18:11;;;;;;;5.47;1.00;;;17.50;99.90;;;;;;5050076;28;20635;-77